Time;durP1;ratioP1;P1;durP2;ratioP2;P2;SDS_P1;SDS_P2;PMS_P1;PMS_P2;Temp;Humidity;BMP_temperature;BMP_pressure;BME280_temperature;BME280_humidity;BME280_pressure;Samples;Min_cycle;Max_cycle;Signal;HPM_P1;HPM_P2
2024/02/19 00:01:37;;;;;;;3.55;3.35;;;4.00;99.90;;;;;;5083340;28;20200;-82
2024/02/19 00:04:04;;;;;;;4.10;3.90;;;4.00;99.90;;;;;;5093774;28;20240;-83
2024/02/19 00:06:31;;;;;;;6.65;6.15;;;4.00;99.90;;;;;;5088766;28;20203;-83
2024/02/19 00:08:58;;;;;;;4.70;4.35;;;4.00;99.90;;;;;;5075143;28;20223;-84
2024/02/19 00:11:25;;;;;;;5.00;4.65;;;4.00;99.90;;;;;;5084288;28;20270;-83
2024/02/19 00:13:53;;;;;;;1.00;1.00;;;4.00;99.90;;;;;;5078402;28;20363;-81
2024/02/19 00:16:20;;;;;;;2.45;2.35;;;3.90;99.90;;;;;;5090625;28;20210;-82
2024/02/19 00:18:49;;;;;;;2.40;2.30;;;3.90;99.90;;;;;;5085753;28;20267;-83
2024/02/19 00:21:17;;;;;;;5.43;5.07;;;3.90;99.90;;;;;;5095248;28;20257;-83
2024/02/19 00:23:44;;;;;;;3.53;3.35;;;3.90;99.90;;;;;;5089617;28;20226;-82
2024/02/19 00:26:11;;;;;;;4.10;3.22;;;4.10;99.90;;;;;;5090839;28;20282;-83
2024/02/19 00:28:38;;;;;;;3.03;2.92;;;3.90;99.90;;;;;;5086287;28;20230;-82
2024/02/19 00:31:05;;;;;;;3.28;3.05;;;3.90;99.90;;;;;;5095955;28;20226;-84
2024/02/19 00:33:32;;;;;;;5.50;4.93;;;3.90;99.90;;;;;;5103573;28;20203;-80
2024/02/19 00:35:58;;;;;;;4.40;4.13;;;4.00;99.90;;;;;;5082270;28;20296;-81
2024/02/19 00:38:25;;;;;;;5.47;3.22;;;4.10;99.90;;;;;;5086061;28;20488;-82
2024/02/19 00:40:52;;;;;;;4.13;3.60;;;4.10;99.90;;;;;;5086643;28;20202;-83
2024/02/19 00:43:19;;;;;;;1.50;1.40;;;3.90;99.90;;;;;;5088653;28;20205;-83
2024/02/19 00:45:46;;;;;;;4.60;2.40;;;4.00;99.90;;;;;;5083103;28;20207;-80
2024/02/19 00:48:14;;;;;;;1.98;1.88;;;4.10;99.90;;;;;;5091537;28;20238;-80
2024/02/19 00:50:41;;;;;;;2.03;1.65;;;4.10;99.90;;;;;;5099436;28;20194;-82
2024/02/19 00:53:08;;;;;;;2.92;1.85;;;4.10;99.90;;;;;;5090348;28;20201;-81
2024/02/19 00:55:35;;;;;;;3.28;3.08;;;4.20;99.90;;;;;;5090583;28;20293;-83
2024/02/19 00:58:02;;;;;;;4.63;4.22;;;4.10;99.90;;;;;;5092861;28;20277;-81
2024/02/19 01:00:30;;;;;;;2.65;2.55;;;4.10;99.90;;;;;;5102318;28;20205;-85
2024/02/19 01:02:58;;;;;;;2.50;2.40;;;4.10;99.90;;;;;;5094278;28;20503;-79
2024/02/19 01:05:25;;;;;;;3.55;2.90;;;4.20;99.90;;;;;;5092537;28;20221;-82
2024/02/19 01:07:52;;;;;;;4.38;4.18;;;4.10;99.90;;;;;;5095702;28;20266;-80
2024/02/19 01:10:19;;;;;;;3.63;3.42;;;4.30;99.90;;;;;;5101980;28;20195;-81
2024/02/19 01:12:46;;;;;;;4.38;3.25;;;4.20;99.90;;;;;;5092494;28;20271;-79
2024/02/19 01:15:13;;;;;;;2.85;2.75;;;4.20;99.90;;;;;;5078553;28;20205;-79
2024/02/19 01:17:40;;;;;;;5.50;4.15;;;4.10;99.90;;;;;;5079653;28;20383;-81
2024/02/19 01:20:09;;;;;;;3.00;2.53;;;4.10;99.90;;;;;;5095430;28;20195;-82
2024/02/19 01:22:36;;;;;;;3.90;3.60;;;4.30;99.90;;;;;;5085509;28;20258;-82
2024/02/19 01:25:03;;;;;;;7.05;6.53;;;4.30;99.90;;;;;;5094412;28;20263;-83
2024/02/19 01:27:31;;;;;;;1.92;1.90;;;4.30;99.90;;;;;;5082316;28;20250;-80
2024/02/19 01:29:58;;;;;;;9.95;5.38;;;4.40;99.90;;;;;;5075516;28;20202;-83
2024/02/19 01:32:25;;;;;;;2.45;2.35;;;4.50;99.90;;;;;;5085615;28;20199;-81
2024/02/19 01:34:52;;;;;;;5.28;3.05;;;4.50;99.90;;;;;;5084657;28;20221;-82
2024/02/19 01:37:20;;;;;;;2.25;2.15;;;4.60;99.90;;;;;;5079265;28;20188;-82
2024/02/19 01:39:47;;;;;;;4.80;2.08;;;4.50;99.90;;;;;;5089912;28;20262;-81
2024/02/19 01:42:14;;;;;;;1.38;1.33;;;4.60;99.90;;;;;;5076415;28;20209;-81
2024/02/19 01:44:41;;;;;;;2.45;2.35;;;4.60;99.90;;;;;;5084518;28;20205;-80
2024/02/19 01:47:09;;;;;;;4.75;4.40;;;4.60;99.90;;;;;;5089428;28;20199;-81
2024/02/19 01:49:38;;;;;;;3.97;3.33;;;4.70;99.90;;;;;;5093201;28;20489;-81
2024/02/19 01:52:06;;;;;;;6.28;3.85;;;4.70;99.90;;;;;;5069975;28;20201;-81
2024/02/19 01:54:35;;;;;;;3.92;3.72;;;4.90;99.90;;;;;;5072194;28;20499;-81
2024/02/19 01:57:02;;;;;;;1.17;1.17;;;4.90;99.90;;;;;;5081130;28;20226;-81
2024/02/19 01:59:31;;;;;;;3.00;2.80;;;4.90;99.90;;;;;;5084073;28;20215;-80
2024/02/19 02:01:59;;;;;;;2.10;1.95;;;5.10;99.90;;;;;;5070548;28;20230;-79
2024/02/19 02:04:28;;;;;;;2.53;2.42;;;5.00;99.90;;;;;;5090327;28;20203;-84
2024/02/19 02:06:55;;;;;;;4.22;4.03;;;5.00;99.90;;;;;;5091146;28;20247;-81
2024/02/19 02:09:28;;;;;;;1.67;1.50;;;5.00;99.90;;;;;;5097457;28;20247;-81
2024/02/19 02:12:05;;;;;;;1.73;1.73;;;5.00;99.90;;;;;;5084924;28;20222;-83
2024/02/19 02:14:32;;;;;;;3.30;3.10;;;5.00;99.90;;;;;;5072189;28;20441;-81
2024/02/19 02:17:00;;;;;;;2.40;2.20;;;5.00;99.90;;;;;;5084466;28;20262;-83
2024/02/19 02:19:27;;;;;;;4.10;3.38;;;5.00;99.90;;;;;;5083923;28;20518;-80
2024/02/19 02:21:55;;;;;;;2.97;2.88;;;5.00;99.90;;;;;;5086331;28;20503;-82
2024/02/19 02:24:22;;;;;;;4.28;2.72;;;5.00;99.90;;;;;;5085191;28;20199;-79
2024/02/19 02:26:49;;;;;;;6.88;2.80;;;5.00;99.90;;;;;;5074294;28;20266;-80
2024/02/19 02:29:16;;;;;;;10.52;5.15;;;5.00;99.90;;;;;;5087306;28;20233;-82
2024/02/19 02:31:45;;;;;;;1.77;1.67;;;5.00;99.90;;;;;;5075957;28;20272;-82
2024/02/19 02:34:12;;;;;;;5.63;5.10;;;5.00;99.90;;;;;;5093550;28;20526;-82
2024/02/19 02:36:40;;;;;;;4.70;4.30;;;5.00;99.90;;;;;;5073891;28;20207;-80
2024/02/19 02:39:07;;;;;;;2.10;2.00;;;5.00;99.90;;;;;;5066087;28;20404;-82
2024/02/19 02:41:34;;;;;;;0.88;0.88;;;5.10;99.90;;;;;;5082206;28;20227;-82
2024/02/19 02:44:01;;;;;;;3.03;2.92;;;5.10;99.90;;;;;;5073973;28;20640;-83
2024/02/19 02:46:28;;;;;;;4.93;3.03;;;5.10;99.90;;;;;;5074852;28;20199;-83
2024/02/19 02:48:56;;;;;;;4.25;4.05;;;5.10;99.90;;;;;;5098169;28;20238;-81
2024/02/19 02:51:23;;;;;;;2.85;2.58;;;5.10;99.90;;;;;;5094742;28;20218;-83
2024/02/19 02:53:50;;;;;;;2.85;2.65;;;5.10;99.90;;;;;;5095799;28;20201;-83
2024/02/19 02:56:21;;;;;;;1.85;1.80;;;5.00;99.90;;;;;;5089166;28;20199;-81
2024/02/19 02:58:48;;;;;;;1.45;1.45;;;5.00;99.90;;;;;;5083823;28;20206;-82
2024/02/19 03:01:21;;;;;;;5.97;3.17;;;5.00;99.90;;;;;;5083765;28;20270;-83
2024/02/19 03:03:48;;;;;;;3.20;2.47;;;5.00;99.90;;;;;;5072431;28;20191;-82
2024/02/19 03:06:16;;;;;;;7.50;2.67;;;4.90;99.90;;;;;;5083552;28;20383;-83
2024/02/19 03:08:44;;;;;;;5.38;3.65;;;4.80;99.90;;;;;;5076527;28;20442;-83
2024/02/19 03:11:12;;;;;;;2.40;2.30;;;4.80;99.90;;;;;;5075878;28;20422;-83
2024/02/19 03:13:39;;;;;;;2.03;1.95;;;5.00;99.90;;;;;;5066655;28;20226;-82
2024/02/19 03:16:07;;;;;;;2.08;1.98;;;4.90;99.90;;;;;;5068062;28;20194;-82
2024/02/19 03:18:34;;;;;;;2.45;2.25;;;4.90;99.90;;;;;;5088825;28;20230;-82
2024/02/19 03:21:07;;;;;;;3.17;3.03;;;4.90;99.90;;;;;;5065058;28;20268;-82
2024/02/19 03:23:34;;;;;;;1.30;1.30;;;4.90;99.90;;;;;;5087176;28;20375;-82
2024/02/19 03:26:01;;;;;;;1.77;1.67;;;4.90;99.90;;;;;;5088317;28;20210;-81
2024/02/19 03:28:28;;;;;;;2.78;2.58;;;4.90;99.90;;;;;;5089958;28;20470;-82
2024/02/19 03:30:55;;;;;;;1.42;1.35;;;4.90;99.90;;;;;;5086435;28;20222;-80
2024/02/19 03:33:22;;;;;;;1.40;1.40;;;5.00;99.90;;;;;;5083752;28;20211;-80
2024/02/19 03:35:49;;;;;;;1.90;1.80;;;5.00;99.90;;;;;;5083073;28;20235;-80
2024/02/19 03:38:19;;;;;;;1.40;1.40;;;5.10;99.90;;;;;;5082772;28;20241;-79
2024/02/19 03:40:46;;;;;;;2.15;1.60;;;5.20;99.90;;;;;;5085827;28;20198;-81
2024/02/19 03:43:13;;;;;;;0.55;0.55;;;5.20;99.90;;;;;;5093966;28;20225;-80
2024/02/19 03:45:40;;;;;;;2.53;2.42;;;5.20;99.90;;;;;;5081930;28;20227;-82
2024/02/19 03:48:07;;;;;;;2.42;2.33;;;5.20;99.90;;;;;;5082059;28;20577;-81
2024/02/19 03:50:34;;;;;;;1.50;1.48;;;5.30;99.90;;;;;;5086279;28;20206;-80
2024/02/19 03:53:02;;;;;;;1.40;1.38;;;5.20;99.90;;;;;;5077728;28;20226;-80
2024/02/19 03:55:29;;;;;;;4.38;3.00;;;5.20;99.90;;;;;;5069345;28;20199;-81
2024/02/19 03:57:56;;;;;;;1.02;1.00;;;5.30;99.90;;;;;;5083178;28;20221;-81
2024/02/19 04:00:23;;;;;;;2.58;2.38;;;5.30;99.90;;;;;;5097465;28;20201;-81
2024/02/19 04:02:50;;;;;;;1.13;1.13;;;5.30;99.90;;;;;;5078279;28;20259;-80
2024/02/19 04:05:17;;;;;;;1.30;1.30;;;5.30;99.90;;;;;;5082447;28;20416;-80
2024/02/19 04:07:44;;;;;;;1.40;1.30;;;5.30;99.90;;;;;;5081833;28;20266;-79
2024/02/19 04:10:11;;;;;;;0.85;0.85;;;5.40;99.90;;;;;;5075071;28;20523;-82
2024/02/19 04:12:38;;;;;;;2.72;2.63;;;5.40;99.90;;;;;;5082203;28;20719;-83
2024/02/19 04:15:06;;;;;;;1.23;1.23;;;5.40;99.90;;;;;;5093442;28;20201;-82
2024/02/19 04:17:33;;;;;;;0.95;0.95;;;5.50;99.90;;;;;;5095456;28;20199;-81
2024/02/19 04:20:01;;;;;;;3.33;3.05;;;5.50;99.90;;;;;;5083787;28;20495;-81
2024/02/19 04:22:28;;;;;;;2.30;2.17;;;5.60;99.90;;;;;;5087361;28;20396;-81
2024/02/19 04:24:55;;;;;;;2.35;2.15;;;5.60;99.90;;;;;;5093010;28;20239;-81
2024/02/19 04:27:22;;;;;;;3.80;2.63;;;5.70;99.90;;;;;;5078686;28;20222;-80
2024/02/19 04:29:49;;;;;;;1.88;1.77;;;5.80;99.90;;;;;;5090098;28;20435;-81
2024/02/19 04:32:16;;;;;;;0.93;0.93;;;5.70;99.90;;;;;;5078328;28;20200;-81
2024/02/19 04:34:43;;;;;;;2.80;2.55;;;5.80;99.90;;;;;;5083161;28;20200;-81
2024/02/19 04:37:10;;;;;;;2.80;2.70;;;5.80;99.90;;;;;;5084663;28;20191;-82
2024/02/19 04:39:37;;;;;;;0.70;0.70;;;5.80;99.90;;;;;;5082928;28;20227;-81
2024/02/19 04:42:04;;;;;;;0.60;0.60;;;5.90;99.90;;;;;;5085036;28;20510;-82
2024/02/19 04:44:31;;;;;;;2.70;2.60;;;5.90;99.90;;;;;;5082796;28;20292;-81
2024/02/19 04:46:58;;;;;;;7.53;2.55;;;5.90;99.90;;;;;;5092313;28;20222;-81
2024/02/19 04:49:27;;;;;;;1.15;1.15;;;5.90;99.90;;;;;;5093670;28;20228;-81
2024/02/19 04:51:54;;;;;;;1.85;1.75;;;5.90;99.90;;;;;;5084838;28;20222;-82
2024/02/19 04:54:21;;;;;;;3.33;2.10;;;5.90;99.90;;;;;;5087523;28;20202;-82
2024/02/19 04:56:48;;;;;;;1.25;1.25;;;5.90;99.90;;;;;;5083152;28;20206;-80
2024/02/19 04:59:15;;;;;;;1.65;1.55;;;6.00;99.90;;;;;;5068290;28;20234;-81
2024/02/19 05:01:42;;;;;;;5.70;2.80;;;5.90;99.90;;;;;;5102924;28;20266;-80
2024/02/19 05:04:11;;;;;;;1.33;1.33;;;5.90;99.90;;;;;;5076018;28;20199;-81
2024/02/19 05:06:38;;;;;;;1.67;1.58;;;5.90;99.90;;;;;;5085600;28;20255;-81
2024/02/19 05:09:07;;;;;;;1.40;1.40;;;6.00;99.90;;;;;;5073400;28;20230;-82
2024/02/19 05:11:34;;;;;;;0.40;0.40;;;5.90;99.90;;;;;;5084511;28;20238;-79
2024/02/19 05:14:01;;;;;;;0.70;0.70;;;5.90;99.90;;;;;;5086968;28;20217;-80
2024/02/19 05:16:28;;;;;;;2.35;2.15;;;6.00;99.90;;;;;;5076470;28;20227;-82
2024/02/19 05:18:56;;;;;;;7.60;0.90;;;6.00;99.90;;;;;;5080709;28;20205;-79
2024/02/19 05:21:23;;;;;;;0.70;0.70;;;6.00;99.90;;;;;;5080299;28;20286;-82
2024/02/19 05:23:50;;;;;;;0.65;0.65;;;6.00;99.90;;;;;;5085515;28;20206;-80
2024/02/19 05:26:27;;;;;;;0.95;0.95;;;6.00;99.90;;;;;;5080908;28;20497;-81
2024/02/19 05:28:54;;;;;;;0.98;0.93;;;6.00;99.90;;;;;;5084275;28;20241;-80
2024/02/19 05:31:36;;;;;;;1.98;1.88;;;6.00;99.90;;;;;;5083382;28;20210;-81
2024/02/19 05:34:04;;;;;;;2.17;2.08;;;6.00;99.90;;;;;;5084193;28;20199;-80
2024/02/19 05:36:32;;;;;;;0.55;0.55;;;6.00;99.90;;;;;;5067332;28;20260;-80
2024/02/19 05:39:00;;;;;;;3.85;3.55;;;6.00;99.90;;;;;;5085726;28;20203;-81
2024/02/19 05:41:27;;;;;;;5.20;2.85;;;6.00;99.90;;;;;;5086604;28;20222;-81
2024/02/19 05:43:54;;;;;;;2.38;2.25;;;6.00;99.90;;;;;;5066511;28;20373;-80
2024/02/19 05:46:22;;;;;;;4.78;3.78;;;6.00;99.90;;;;;;5078862;28;20199;-80
2024/02/19 05:48:51;;;;;;;0.68;0.68;;;6.00;99.90;;;;;;5065839;28;20588;-81
2024/02/19 05:51:22;;;;;;;0.40;0.40;;;6.00;99.90;;;;;;5076090;28;20250;-80
2024/02/19 05:53:49;;;;;;;1.85;1.75;;;6.00;99.90;;;;;;5077252;28;20203;-82
2024/02/19 05:56:16;;;;;;;1.80;1.67;;;6.00;99.90;;;;;;5077275;28;20199;-82
2024/02/19 05:58:43;;;;;;;2.05;1.95;;;6.10;99.90;;;;;;5084128;28;20415;-82
2024/02/19 06:01:11;;;;;;;0.70;0.70;;;6.10;99.90;;;;;;5076089;28;20263;-79
2024/02/19 06:03:38;;;;;;;0.70;0.70;;;6.10;99.90;;;;;;5063726;28;20479;-81
2024/02/19 06:06:05;;;;;;;0.45;0.45;;;6.10;99.90;;;;;;5092083;28;20206;-81
2024/02/19 06:08:32;;;;;;;2.55;1.45;;;6.20;99.90;;;;;;5084634;28;20199;-81
2024/02/19 06:11:03;;;;;;;2.55;2.45;;;6.00;99.90;;;;;;5084448;28;20195;-82
2024/02/19 06:13:30;;;;;;;0.70;0.70;;;6.10;99.90;;;;;;5091114;28;20204;-81
2024/02/19 06:15:57;;;;;;;1.88;1.77;;;6.10;99.90;;;;;;5085526;28;20556;-82
2024/02/19 06:18:24;;;;;;;0.43;0.43;;;6.20;99.90;;;;;;5088966;28;20203;-80
2024/02/19 06:20:51;;;;;;;1.75;1.67;;;6.20;99.90;;;;;;5090529;28;20198;-81
2024/02/19 06:23:18;;;;;;;1.13;1.13;;;6.20;99.90;;;;;;5096174;28;20278;-83
2024/02/19 06:25:45;;;;;;;1.70;1.60;;;6.30;99.90;;;;;;5098211;28;20263;-81
2024/02/19 06:28:13;;;;;;;1.17;1.17;;;6.40;99.90;;;;;;5081940;28;20199;-82
2024/02/19 06:30:40;;;;;;;1.02;1.02;;;6.40;99.90;;;;;;5088111;28;20254;-83
2024/02/19 06:33:07;;;;;;;0.88;0.88;;;6.50;99.90;;;;;;5086021;28;20198;-80
2024/02/19 06:35:34;;;;;;;1.70;1.60;;;6.60;99.90;;;;;;5080033;28;20263;-82
2024/02/19 06:38:01;;;;;;;1.13;1.02;;;6.70;99.90;;;;;;5080729;28;20218;-81
2024/02/19 06:40:28;;;;;;;0.88;0.88;;;6.70;99.90;;;;;;5073287;28;20238;-81
2024/02/19 06:42:55;;;;;;;0.70;0.70;;;6.70;99.90;;;;;;5091266;28;20203;-80
2024/02/19 06:45:22;;;;;;;0.40;0.40;;;6.70;99.90;;;;;;5090270;28;20236;-81
2024/02/19 06:47:50;;;;;;;0.70;0.70;;;6.80;99.90;;;;;;5090567;28;20262;-83
2024/02/19 06:50:17;;;;;;;0.60;0.60;;;6.80;99.90;;;;;;5088546;28;20223;-81
2024/02/19 06:52:45;;;;;;;0.50;0.50;;;7.00;99.90;;;;;;5087083;28;20224;-82
2024/02/19 06:55:14;;;;;;;1.50;1.40;;;6.90;99.90;;;;;;5087230;28;20203;-81
2024/02/19 06:57:42;;;;;;;1.17;1.17;;;7.00;99.90;;;;;;5079507;28;20274;-81
2024/02/19 07:00:10;;;;;;;1.33;1.27;;;7.00;99.90;;;;;;5087137;28;20360;-81
2024/02/19 07:02:38;;;;;;;1.10;1.10;;;7.00;99.90;;;;;;5086907;28;20515;-81
2024/02/19 07:05:06;;;;;;;0.50;0.50;;;7.10;99.90;;;;;;5088225;28;20217;-81
2024/02/19 07:07:37;;;;;;;0.55;0.55;;;7.10;99.90;;;;;;5072388;28;20233;-82
2024/02/19 07:10:05;;;;;;;0.60;0.60;;;7.10;99.90;;;;;;5077958;28;20231;-82
2024/02/19 07:12:32;;;;;;;0.40;0.40;;;7.20;99.90;;;;;;5076323;28;20249;-82
2024/02/19 07:14:59;;;;;;;2.83;2.72;;;7.20;99.90;;;;;;5065403;28;20223;-83
2024/02/19 07:17:32;;;;;;;3.13;2.10;;;7.20;99.90;;;;;;5096922;28;20202;-82
2024/02/19 07:20:03;;;;;;;0.40;0.40;;;7.20;99.90;;;;;;5069035;28;20201;-83
2024/02/19 07:22:30;;;;;;;0.93;0.93;;;7.30;99.90;;;;;;5092429;28;20209;-82
2024/02/19 07:24:57;;;;;;;0.40;0.40;;;7.40;99.90;;;;;;5090737;28;20270;-81
2024/02/19 07:27:42;;;;;;;0.60;0.60;;;7.40;99.90;;;;;;5064916;28;20225;-82
2024/02/19 07:30:12;;;;;;;0.60;0.60;;;7.30;99.90;;;;;;5077591;28;20214;-83
2024/02/19 07:32:39;;;;;;;0.40;0.40;;;7.40;99.90;;;;;;5086668;28;20224;-82
2024/02/19 07:35:08;;;;;;;0.50;0.50;;;7.40;99.90;;;;;;5079562;28;20256;-82
2024/02/19 07:37:36;;;;;;;0.73;0.70;;;7.50;99.90;;;;;;5091211;28;20511;-82
2024/02/19 07:40:04;;;;;;;3.40;3.10;;;7.50;99.90;;;;;;5081769;28;20203;-82
2024/02/19 07:42:32;;;;;;;0.60;0.60;;;7.60;99.90;;;;;;5075820;28;20202;-83
2024/02/19 07:44:58;;;;;;;2.28;1.40;;;7.60;99.90;;;;;;5098919;28;20254;-84
2024/02/19 07:47:26;;;;;;;0.43;0.43;;;7.70;99.90;;;;;;5080080;28;20214;-84
2024/02/19 07:49:53;;;;;;;0.50;0.50;;;7.80;99.90;;;;;;5095260;28;20227;-84
2024/02/19 07:52:20;;;;;;;0.40;0.40;;;7.80;99.90;;;;;;5101674;28;20203;-81
2024/02/19 07:54:47;;;;;;;0.77;0.77;;;7.90;99.90;;;;;;5097237;28;20198;-81
2024/02/19 07:57:14;;;;;;;1.38;1.38;;;7.90;99.90;;;;;;5091098;28;20199;-83
2024/02/19 07:59:41;;;;;;;0.85;0.85;;;7.90;99.90;;;;;;5085051;28;20231;-82
2024/02/19 08:02:08;;;;;;;1.80;1.70;;;7.90;99.90;;;;;;5066777;28;20210;-83
2024/02/19 08:04:35;;;;;;;5.85;3.33;;;7.90;99.90;;;;;;5088108;28;20288;-83
2024/02/19 08:07:03;;;;;;;1.13;1.13;;;8.00;99.90;;;;;;5079410;28;20203;-82
2024/02/19 08:09:30;;;;;;;2.20;2.10;;;8.10;99.90;;;;;;5082593;28;20222;-81
2024/02/19 08:11:59;;;;;;;0.73;0.73;;;8.20;99.90;;;;;;5085275;28;20205;-82
2024/02/19 08:14:27;;;;;;;0.95;0.95;;;8.40;99.90;;;;;;5067952;28;20199;-81
2024/02/19 08:16:54;;;;;;;0.50;0.50;;;8.50;99.90;;;;;;5088490;28;20270;-81
2024/02/19 08:19:21;;;;;;;0.60;0.60;;;8.80;99.90;;;;;;5087534;28;20270;-82
2024/02/19 08:21:49;;;;;;;0.70;0.70;;;9.00;99.90;;;;;;5085514;28;20407;-80
2024/02/19 08:24:17;;;;;;;0.70;0.70;;;9.00;99.90;;;;;;5088781;28;20194;-81
2024/02/19 08:26:44;;;;;;;0.60;0.60;;;9.20;99.90;;;;;;5096900;28;20221;-80
2024/02/19 08:29:11;;;;;;;0.50;0.50;;;9.30;99.90;;;;;;5080173;28;20229;-81
2024/02/19 08:31:40;;;;;;;0.80;0.80;;;9.40;99.90;;;;;;5091456;28;20199;-81
2024/02/19 08:34:08;;;;;;;0.70;0.70;;;9.40;99.90;;;;;;5095606;28;20423;-81
2024/02/19 08:36:37;;;;;;;0.60;0.60;;;9.40;99.90;;;;;;5092868;28;20229;-81
2024/02/19 08:39:04;;;;;;;1.05;1.05;;;9.50;99.90;;;;;;5067101;28;20205;-82
2024/02/19 08:41:32;;;;;;;0.50;0.50;;;9.60;99.90;;;;;;5084700;28;20226;-80
2024/02/19 08:43:59;;;;;;;1.75;1.65;;;9.70;99.90;;;;;;5086923;28;20205;-81
2024/02/19 08:46:26;;;;;;;0.60;0.60;;;9.70;99.90;;;;;;5098053;28;20233;-82
2024/02/19 08:48:55;;;;;;;0.63;0.63;;;9.70;99.90;;;;;;5086878;28;20206;-82
2024/02/19 08:51:22;;;;;;;0.85;0.85;;;9.80;99.90;;;;;;5057759;28;20227;-83
2024/02/19 08:53:51;;;;;;;1.02;1.02;;;9.80;99.90;;;;;;5091924;28;20199;-82
2024/02/19 08:56:25;;;;;;;0.70;0.70;;;9.80;99.90;;;;;;5078369;28;20208;-81
2024/02/19 08:58:52;;;;;;;0.80;0.80;;;9.80;99.90;;;;;;5080664;28;20360;-80
2024/02/19 09:01:20;;;;;;;0.50;0.50;;;9.70;99.90;;;;;;5065524;28;20249;-82
2024/02/19 09:03:47;;;;;;;0.60;0.60;;;9.60;99.90;;;;;;5093391;28;20211;-79
2024/02/19 09:06:15;;;;;;;0.60;0.60;;;9.60;99.90;;;;;;5092855;28;20208;-81
2024/02/19 09:08:43;;;;;;;0.60;0.60;;;9.80;99.90;;;;;;5085723;28;20199;-81
2024/02/19 09:11:10;;;;;;;0.43;0.43;;;9.70;99.90;;;;;;5092870;28;20244;-82
2024/02/19 09:13:37;;;;;;;1.42;1.15;;;9.80;99.90;;;;;;5089683;28;20433;-81
2024/02/19 09:16:05;;;;;;;0.93;0.93;;;9.80;99.90;;;;;;5087377;28;20272;-81
2024/02/19 09:18:32;;;;;;;1.88;1.77;;;9.60;99.90;;;;;;5082133;28;20204;-82
2024/02/19 09:21:00;;;;;;;0.50;0.50;;;9.50;99.90;;;;;;5086895;28;20245;-82
2024/02/19 09:23:27;;;;;;;0.50;0.50;;;9.50;99.90;;;;;;5088343;28;20234;-83
2024/02/19 09:25:57;;;;;;;0.50;0.50;;;9.40;99.90;;;;;;5082734;28;20259;-82
2024/02/19 09:28:24;;;;;;;0.50;0.50;;;9.40;99.90;;;;;;5090290;28;20260;-80
2024/02/19 09:30:51;;;;;;;0.60;0.60;;;9.50;99.90;;;;;;5081114;28;20451;-82
2024/02/19 09:33:19;;;;;;;1.15;1.15;;;9.40;99.90;;;;;;5085414;28;20195;-80
2024/02/19 09:35:49;;;;;;;0.50;0.50;;;9.30;99.90;;;;;;5077499;28;20218;-81
2024/02/19 09:38:16;;;;;;;0.60;0.60;;;9.40;99.90;;;;;;5077754;28;20194;-80
2024/02/19 09:40:47;;;;;;;0.60;0.60;;;9.40;99.90;;;;;;5092829;28;20530;-82
2024/02/19 09:43:14;;;;;;;0.50;0.50;;;9.70;99.90;;;;;;5073342;28;20258;-80
2024/02/19 09:45:41;;;;;;;0.80;0.80;;;9.40;99.90;;;;;;5087302;28;20221;-81
2024/02/19 09:48:10;;;;;;;0.50;0.50;;;9.40;99.90;;;;;;5082015;28;20211;-82
2024/02/19 09:50:43;;;;;;;0.60;0.60;;;9.30;99.90;;;;;;5089603;28;20285;-81
2024/02/19 09:53:15;;;;;;;0.90;0.90;;;9.10;99.90;;;;;;5081187;28;20203;-81
2024/02/19 09:55:42;;;;;;;0.60;0.60;;;9.00;99.90;;;;;;5078631;28;20269;-82
2024/02/19 09:58:09;;;;;;;0.50;0.50;;;8.70;99.90;;;;;;5070000;28;20195;-83
2024/02/19 10:00:36;;;;;;;0.60;0.60;;;8.80;99.90;;;;;;5074897;28;20237;-80
2024/02/19 10:03:04;;;;;;;0.50;0.50;;;8.70;99.90;;;;;;5084237;28;20205;-80
2024/02/19 10:05:31;;;;;;;0.50;0.50;;;8.60;99.90;;;;;;5078955;28;20211;-81
2024/02/19 10:08:03;;;;;;;0.50;0.50;;;8.60;99.90;;;;;;5085755;28;20287;-81
2024/02/19 10:10:32;;;;;;;0.50;0.50;;;8.50;99.90;;;;;;5092377;28;20215;-80
2024/02/19 10:13:00;;;;;;;0.55;0.55;;;8.50;99.90;;;;;;5093055;28;20383;-82
2024/02/19 10:15:28;;;;;;;0.50;0.50;;;8.50;99.90;;;;;;5097157;28;20198;-79
2024/02/19 10:17:55;;;;;;;0.50;0.50;;;8.60;99.90;;;;;;5068120;28;20223;-79
2024/02/19 10:20:22;;;;;;;0.50;0.50;;;8.60;99.90;;;;;;5083203;28;20227;-79
2024/02/19 10:22:49;;;;;;;1.85;1.17;;;8.60;99.90;;;;;;5085934;28;20456;-83
2024/02/19 10:25:18;;;;;;;0.50;0.50;;;8.50;99.90;;;;;;5101058;28;20431;-80
2024/02/19 10:27:45;;;;;;;0.98;0.98;;;8.50;99.90;;;;;;5074386;28;20551;-83
2024/02/19 10:30:13;;;;;;;0.50;0.50;;;8.40;99.90;;;;;;5085409;28;20241;-81
2024/02/19 10:32:45;;;;;;;0.40;0.40;;;8.40;99.90;;;;;;5078658;28;20391;-80
2024/02/19 10:35:13;;;;;;;0.50;0.50;;;8.60;99.90;;;;;;5072418;28;20544;-81
2024/02/19 10:37:40;;;;;;;0.50;0.50;;;8.70;99.90;;;;;;5079209;28;20195;-79
2024/02/19 10:40:10;;;;;;;0.60;0.60;;;8.70;99.90;;;;;;5088377;28;20244;-81
2024/02/19 10:42:38;;;;;;;0.50;0.50;;;8.70;99.90;;;;;;5063434;28;20207;-81
2024/02/19 10:45:08;;;;;;;0.60;0.60;;;8.70;99.90;;;;;;5066935;28;20236;-80
2024/02/19 10:47:35;;;;;;;0.50;0.50;;;8.50;99.90;;;;;;5090581;28;20199;-80
2024/02/19 10:50:05;;;;;;;0.90;0.90;;;8.50;99.90;;;;;;5085073;28;20238;-82
2024/02/19 10:52:33;;;;;;;1.23;1.13;;;8.60;99.90;;;;;;5087298;28;20244;-82
2024/02/19 10:55:00;;;;;;;0.70;0.70;;;8.70;99.90;;;;;;5081850;28;20196;-82
2024/02/19 10:57:48;;;;;;;0.50;0.50;;;8.80;99.90;;;;;;5090991;28;20375;-81
2024/02/19 11:00:18;;;;;;;0.60;0.60;;;8.80;99.90;;;;;;5063302;28;20219;-83
2024/02/19 11:02:48;;;;;;;0.80;0.80;;;8.80;99.90;;;;;;5086119;28;20203;-82
2024/02/19 11:05:17;;;;;;;0.60;0.60;;;8.80;99.90;;;;;;5059503;28;20195;-80
2024/02/19 11:07:44;;;;;;;0.60;0.60;;;8.80;99.90;;;;;;5073834;28;20219;-80
2024/02/19 11:10:11;;;;;;;0.55;0.55;;;9.00;99.90;;;;;;5091922;28;20277;-82
2024/02/19 11:12:40;;;;;;;0.50;0.50;;;8.80;99.90;;;;;;5081169;28;20203;-81
2024/02/19 11:15:17;;;;;;;0.60;0.60;;;8.90;99.90;;;;;;5079926;28;20438;-82
2024/02/19 11:17:47;;;;;;;0.60;0.60;;;8.70;99.90;;;;;;5075834;28;20203;-82
2024/02/19 11:20:24;;;;;;;0.60;0.60;;;8.70;99.90;;;;;;5074594;28;20202;-81
2024/02/19 11:22:56;;;;;;;0.70;0.70;;;8.80;99.90;;;;;;5074225;28;20199;-81
2024/02/19 11:25:23;;;;;;;0.60;0.60;;;8.70;99.90;;;;;;5093562;28;20206;-80
2024/02/19 11:27:51;;;;;;;0.50;0.50;;;8.60;99.90;;;;;;5062890;28;20199;-82
2024/02/19 11:30:19;;;;;;;0.63;0.63;;;8.60;99.90;;;;;;5100443;28;20217;-85
2024/02/19 11:32:47;;;;;;;0.73;0.73;;;8.70;99.90;;;;;;5098213;28;20395;-82
2024/02/19 11:35:14;;;;;;;0.50;0.50;;;8.60;99.90;;;;;;5094632;28;20214;-81
2024/02/19 11:37:43;;;;;;;0.50;0.50;;;8.60;99.90;;;;;;5082553;28;20241;-80
2024/02/19 11:40:11;;;;;;;0.50;0.50;;;8.50;99.90;;;;;;5097104;28;20210;-83
2024/02/19 11:42:41;;;;;;;0.50;0.50;;;8.50;99.90;;;;;;5088470;28;20238;-82
2024/02/19 11:45:09;;;;;;;0.50;0.50;;;8.60;99.90;;;;;;5089923;28;20263;-85
2024/02/19 11:47:37;;;;;;;0.65;0.65;;;8.50;99.90;;;;;;5102488;28;20198;-82
2024/02/19 11:50:08;;;;;;;0.50;0.50;;;8.40;99.90;;;;;;5089825;28;20211;-82
2024/02/19 11:52:35;;;;;;;0.50;0.50;;;8.50;99.90;;;;;;5090299;28;20242;-81
2024/02/19 11:55:02;;;;;;;0.50;0.50;;;8.60;99.90;;;;;;5087263;28;20195;-82
2024/02/19 11:57:30;;;;;;;0.50;0.50;;;8.60;99.90;;;;;;5097648;28;20414;-82
2024/02/19 12:00:03;;;;;;;0.50;0.50;;;8.50;99.90;;;;;;5077276;28;20254;-82
2024/02/19 12:02:30;;;;;;;0.50;0.50;;;8.50;99.90;;;;;;5074181;28;20430;-81
2024/02/19 12:04:57;;;;;;;0.60;0.60;;;8.50;99.90;;;;;;5094883;28;20296;-84
2024/02/19 12:07:25;;;;;;;0.60;0.60;;;8.40;99.90;;;;;;5071073;28;20199;-81
2024/02/19 12:09:52;;;;;;;0.50;0.50;;;8.30;99.90;;;;;;5070309;28;20256;-81
2024/02/19 12:12:20;;;;;;;0.60;0.60;;;8.20;99.90;;;;;;5086123;28;20229;-81
2024/02/19 12:14:47;;;;;;;0.50;0.50;;;8.30;99.90;;;;;;5083843;28;20508;-81
2024/02/19 12:17:14;;;;;;;0.50;0.50;;;8.30;99.90;;;;;;5082157;28;20225;-80
2024/02/19 12:19:42;;;;;;;0.50;0.50;;;8.20;99.90;;;;;;5076063;28;20486;-79
2024/02/19 12:22:11;;;;;;;0.60;0.60;;;8.20;99.90;;;;;;5085445;28;20199;-82
2024/02/19 12:24:38;;;;;;;0.50;0.50;;;8.10;99.90;;;;;;5086654;28;20401;-84
2024/02/19 12:27:05;;;;;;;0.50;0.50;;;8.00;99.90;;;;;;5075575;28;20203;-82
2024/02/19 12:29:32;;;;;;;0.60;0.60;;;8.10;99.90;;;;;;5090331;28;20199;-82
2024/02/19 12:31:59;;;;;;;0.60;0.60;;;8.00;99.90;;;;;;5094830;28;20232;-82
2024/02/19 12:34:26;;;;;;;0.88;0.88;;;7.90;99.90;;;;;;5098199;28;20261;-80
2024/02/19 12:36:53;;;;;;;0.43;0.43;;;7.90;99.90;;;;;;5101757;28;20229;-82
2024/02/19 12:39:20;;;;;;;0.93;0.90;;;7.90;99.90;;;;;;5110817;28;20198;-83
2024/02/19 12:41:48;;;;;;;0.50;0.50;;;7.80;99.90;;;;;;5099230;28;20202;-84
2024/02/19 12:44:15;;;;;;;0.50;0.50;;;7.80;99.90;;;;;;5080442;28;20194;-81
2024/02/19 12:46:44;;;;;;;0.50;0.50;;;7.70;99.90;;;;;;5086195;28;20199;-80
2024/02/19 12:49:12;;;;;;;0.80;0.80;;;7.70;99.90;;;;;;5093533;28;20257;-81
2024/02/19 12:51:41;;;;;;;0.73;0.73;;;7.70;99.90;;;;;;5091997;28;20268;-82
2024/02/19 12:54:09;;;;;;;0.60;0.60;;;7.70;99.90;;;;;;5098183;28;20234;-81
2024/02/19 12:56:36;;;;;;;0.50;0.50;;;7.90;99.90;;;;;;5094398;28;20195;-80
2024/02/19 12:59:03;;;;;;;0.50;0.50;;;7.70;99.90;;;;;;5078101;28;20200;-80
2024/02/19 13:01:31;;;;;;;0.50;0.50;;;7.60;99.90;;;;;;5081232;28;20253;-81